Time;durP1;ratioP1;P1;durP2;ratioP2;P2;SDS_P1;SDS_P2;PMS_P1;PMS_P2;Temp;Humidity;BMP_temperature;BMP_pressure;BME280_temperature;BME280_humidity;BME280_pressure;Samples;Min_cycle;Max_cycle;Signal;HPM_P1;HPM_P2
2024/01/28 01:35:42;;;;;;;22.45;8.68;;;;;;;;;;5040965;23;20061;-93
2024/01/28 01:38:07;;;;;;;24.07;10.20;;;;;;;;;;4994999;28;20015;-92
2024/01/28 01:40:32;;;;;;;26.37;9.37;;;;;;;;;;4986263;28;20039;-94
2024/01/28 01:43:03;;;;;;;20.90;8.93;;;;;;;;;;5007907;28;20030;-92
2024/01/28 01:45:28;;;;;;;20.67;8.85;;;;;;;;;;4979038;28;20027;-93
2024/01/28 01:47:54;;;;;;;19.73;8.30;;;;;;;;;;4978016;28;20027;-94
2024/01/28 01:50:25;;;;;;;16.27;7.67;;;;;;;;;;4989446;28;20491;-95
2024/01/28 01:52:50;;;;;;;20.38;7.82;;;;;;;;;;4992967;28;20003;-94
2024/01/28 01:55:22;;;;;;;18.37;8.17;;;;;;;;;;4996416;28;20088;-94
2024/01/28 01:57:47;;;;;;;19.50;7.50;;;;;;;;;;4985880;28;20612;-94
2024/01/28 02:00:14;;;;;;;17.03;7.20;;;;;;;;;;4978149;28;20089;-93
2024/01/28 02:02:51;;;;;;;22.73;7.97;;;;;;;;;;4977470;28;20027;-95
2024/01/28 02:05:17;;;;;;;17.73;7.25;;;;;;;;;;4973393;28;20021;-94
2024/01/28 02:07:45;;;;;;;15.67;7.73;;;;;;;;;;4968487;28;20035;-95
2024/01/28 02:10:10;;;;;;;18.92;7.50;;;;;;;;;;4977444;28;20100;-93
2024/01/28 02:12:36;;;;;;;17.83;7.50;;;;;;;;;;4976670;28;20023;-94
2024/01/28 02:21:40;;;;;;;15.25;7.47;;;;;;;;;;4879456;29;20140;-93
2024/01/28 02:24:05;;;;;;;23.90;7.82;;;;;;;;;;4980058;28;20030;-93
2024/01/28 02:26:30;;;;;;;17.60;7.63;;;;;;;;;;4961764;28;20657;-94
2024/01/28 02:29:03;;;;;;;16.92;7.20;;;;;;;;;;4962882;29;20452;-92
2024/01/28 02:31:28;;;;;;;25.73;7.50;;;;;;;;;;4973402;28;20177;-94
2024/01/28 02:33:54;;;;;;;19.58;7.10;;;;;;;;;;4992594;28;20022;-94
2024/01/28 02:36:19;;;;;;;15.70;7.80;;;;;;;;;;4986893;28;20115;-93
2024/01/28 02:38:44;;;;;;;21.97;7.07;;;;;;;;;;4968991;28;20508;-94
2024/01/28 02:41:12;;;;;;;19.13;8.40;;;;;;;;;;4979813;28;20502;-94
2024/01/28 02:43:46;;;;;;;20.10;7.80;;;;;;;;;;4980065;28;20337;-94
2024/01/28 02:46:23;;;;;;;;;;;;;;;;;;;;;
2024/01/28 02:48:49;;;;;;;20.20;7.63;;;;;;;;;;4977322;28;20090;-93
2024/01/28 02:51:16;;;;;;;15.00;6.77;;;;;;;;;;4978005;28;20078;-94
2024/01/28 02:53:51;;;;;;;17.08;8.07;;;;;;;;;;4977319;28;20085;-94
2024/01/28 02:56:17;;;;;;;19.83;6.82;;;;;;;;;;4978049;28;20423;-93
2024/01/28 02:58:51;;;;;;;15.37;7.10;;;;;;;;;;4977650;28;20015;-94
2024/01/28 03:01:21;;;;;;;19.02;7.43;;;;;;;;;;4959338;28;20494;-95
2024/01/28 03:03:47;;;;;;;18.00;7.53;;;;;;;;;;4960865;29;20020;-93
2024/01/28 03:06:12;;;;;;;23.13;7.90;;;;;;;;;;4977677;28;20035;-93
2024/01/28 03:08:39;;;;;;;18.87;7.33;;;;;;;;;;4983720;28;20023;-93
2024/01/28 03:11:13;;;;;;;15.95;6.53;;;;;;;;;;4978839;28;20027;-95
2024/01/28 03:13:39;;;;;;;18.63;6.18;;;;;;;;;;4995848;28;20019;-94
2024/01/28 03:16:04;;;;;;;13.63;6.23;;;;;;;;;;4979190;28;20427;-94
2024/01/28 03:18:36;;;;;;;14.32;6.60;;;;;;;;;;4982195;28;20031;-94
2024/01/28 03:21:12;;;;;;;;;;;;;;;;;;;;;
2024/01/28 03:23:48;;;;;;;14.67;6.17;;;;;;;;;;4983081;28;20098;-94
2024/01/28 03:26:20;;;;;;;21.58;6.43;;;;;;;;;;4986951;28;20476;-95
2024/01/28 03:28:45;;;;;;;18.08;6.45;;;;;;;;;;4960396;29;20439;-95
2024/01/28 03:31:18;;;;;;;15.17;6.27;;;;;;;;;;4959393;29;20086;-94
2024/01/28 03:33:52;;;;;;;20.35;6.53;;;;;;;;;;4970674;28;20023;-94
2024/01/28 03:36:39;;;;;;;15.35;6.15;;;;;;;;;;4977422;28;20034;-94
2024/01/28 03:39:38;;;;;;;13.27;6.32;;;;;;;;;;4961168;28;20027;-93
2024/01/28 03:42:31;;;;;;;;;;;;;;;;;;;;;
2024/01/28 03:47:52;;;;;;;16.65;6.15;;;;;;;;;;4972554;28;20035;-94
2024/01/28 03:50:19;;;;;;;17.63;6.43;;;;;;;;;;4957686;28;20011;-94
2024/01/28 03:52:47;;;;;;;13.75;6.20;;;;;;;;;;4953714;28;20062;-93
2024/01/28 03:55:26;;;;;;;26.80;7.20;;;;;;;;;;4954786;28;20019;-94
2024/01/28 03:57:52;;;;;;;24.10;7.30;;;;;;;;;;4970218;28;20046;-93
2024/01/28 04:03:08;;;;;;;18.20;6.63;;;;;;;;;;4936193;28;20459;-95
2024/01/28 04:05:39;;;;;;;16.50;7.07;;;;;;;;;;4973147;28;20077;-92
2024/01/28 04:08:11;;;;;;;23.37;7.03;;;;;;;;;;4972492;28;20293;-91
2024/01/28 04:10:42;;;;;;;17.75;6.53;;;;;;;;;;4976321;28;20011;-93
2024/01/28 04:24:26;;;;;;;19.25;6.90;;;;;;;;;;5452607;22;20120;-92
2024/01/28 05:30:15;;;;;;;21.45;7.07;;;;;;;;;;5022817;23;20027;-96
2024/01/28 05:35:30;;;;;;;28.98;8.95;;;;;;;;;;5033253;23;20050;-94
2024/01/28 05:38:06;;;;;;;27.92;8.02;;;;;;;;;;4999771;28;20037;-96
2024/01/28 05:46:34;;;;;;;23.20;7.23;;;;;;;;;;5558565;22;20161;-96
2024/01/28 05:48:59;;;;;;;17.47;6.57;;;;;;;;;;4976363;28;20282;-89
2024/01/28 05:51:26;;;;;;;22.73;7.43;;;;;;;;;;4983425;28;20452;-89
2024/01/28 05:53:53;;;;;;;16.55;6.53;;;;;;;;;;4984676;28;20027;-86
2024/01/28 05:56:18;;;;;;;21.15;6.90;;;;;;;;;;4975409;28;20459;-88
2024/01/28 05:58:43;;;;;;;22.43;6.87;;;;;;;;;;4970179;28;20030;-86
2024/01/28 06:01:09;;;;;;;23.20;7.67;;;;;;;;;;4963752;28;20082;-87
2024/01/28 06:03:34;;;;;;;26.33;8.80;;;;;;;;;;4978274;28;20026;-87
2024/01/28 06:05:59;;;;;;;23.27;7.33;;;;;;;;;;4977034;28;20309;-86
2024/01/28 06:08:25;;;;;;;27.73;9.37;;;;;;;;;;4976252;28;20486;-88
2024/01/28 06:10:50;;;;;;;18.20;6.70;;;;;;;;;;4975578;28;20031;-88
2024/01/28 06:13:15;;;;;;;23.97;7.67;;;;;;;;;;4958922;28;20482;-86
2024/01/28 06:15:40;;;;;;;18.97;6.37;;;;;;;;;;4974378;28;20109;-86
2024/01/28 06:18:05;;;;;;;16.87;6.20;;;;;;;;;;4974540;28;20098;-88
2024/01/28 06:20:35;;;;;;;25.23;6.30;;;;;;;;;;4973262;28;20042;-88
2024/01/28 06:23:00;;;;;;;21.23;6.95;;;;;;;;;;4973984;28;20022;-87
2024/01/28 06:25:25;;;;;;;16.37;5.90;;;;;;;;;;4955739;28;20393;-88
2024/01/28 06:27:51;;;;;;;18.97;6.27;;;;;;;;;;4967985;28;20073;-87
2024/01/28 06:30:16;;;;;;;26.52;7.90;;;;;;;;;;4972108;28;20034;-87
2024/01/28 06:32:42;;;;;;;16.23;7.60;;;;;;;;;;4973845;28;20031;-86
2024/01/28 06:35:07;;;;;;;20.37;7.90;;;;;;;;;;4972877;28;20015;-86
2024/01/28 06:37:32;;;;;;;17.50;6.07;;;;;;;;;;4968820;28;20019;-88
2024/01/28 06:39:58;;;;;;;26.07;6.43;;;;;;;;;;4972545;28;20049;-87
2024/01/28 06:42:24;;;;;;;19.60;6.20;;;;;;;;;;4974570;28;20127;-89
2024/01/28 06:44:50;;;;;;;23.40;6.35;;;;;;;;;;4973731;28;20501;-86
2024/01/28 06:47:15;;;;;;;18.57;6.40;;;;;;;;;;4973517;28;20063;-86
2024/01/28 06:49:41;;;;;;;16.13;6.47;;;;;;;;;;4973101;28;20154;-86
2024/01/28 06:52:06;;;;;;;16.47;7.40;;;;;;;;;;4963989;28;20094;-86
2024/01/28 06:54:31;;;;;;;9.47;5.63;;;;;;;;;;4973289;28;20090;-86
2024/01/28 06:56:56;;;;;;;16.37;5.87;;;;;;;;;;4970906;28;20665;-86
2024/01/28 06:59:23;;;;;;;16.87;5.97;;;;;;;;;;4972204;28;20019;-85
2024/01/28 07:01:48;;;;;;;16.15;5.53;;;;;;;;;;4972511;28;20043;-86
2024/01/28 07:04:13;;;;;;;18.50;6.03;;;;;;;;;;4972012;28;20062;-87
2024/01/28 07:06:38;;;;;;;14.77;6.30;;;;;;;;;;4972171;28;20120;-86
2024/01/28 07:09:04;;;;;;;20.20;5.70;;;;;;;;;;4962821;28;20050;-85
2024/01/28 07:11:30;;;;;;;18.63;5.75;;;;;;;;;;4951956;28;20033;-86
2024/01/28 07:13:55;;;;;;;15.87;5.87;;;;;;;;;;4963599;28;20484;-86
2024/01/28 07:16:20;;;;;;;11.60;5.20;;;;;;;;;;4971586;28;20027;-86
2024/01/28 07:18:46;;;;;;;13.95;5.40;;;;;;;;;;4977278;28;20023;-86
2024/01/28 07:21:11;;;;;;;16.90;5.53;;;;;;;;;;4949927;28;20031;-86
2024/01/28 07:23:36;;;;;;;22.17;5.67;;;;;;;;;;4974271;28;20054;-86
2024/01/28 07:26:01;;;;;;;16.50;5.90;;;;;;;;;;4978445;28;20023;-87
2024/01/28 07:28:26;;;;;;;13.73;5.63;;;;;;;;;;4975620;28;20071;-87
2024/01/28 07:30:52;;;;;;;10.37;5.67;;;;;;;;;;4971634;28;20598;-87
2024/01/28 07:33:17;;;;;;;18.30;5.37;;;;;;;;;;4942378;28;20519;-86
2024/01/28 07:35:42;;;;;;;14.20;5.60;;;;;;;;;;4971821;28;20162;-86
2024/01/28 07:38:08;;;;;;;14.33;5.80;;;;;;;;;;4970634;28;20029;-86
2024/01/28 07:40:34;;;;;;;11.57;6.07;;;;;;;;;;4972303;28;20118;-86
2024/01/28 07:42:59;;;;;;;11.57;5.37;;;;;;;;;;4970357;28;20150;-85
2024/01/28 07:45:24;;;;;;;18.00;6.43;;;;;;;;;;4971902;28;20026;-85
2024/01/28 07:47:49;;;;;;;18.77;5.97;;;;;;;;;;4969286;28;20384;-85
2024/01/28 07:50:15;;;;;;;17.77;6.93;;;;;;;;;;4969473;28;20026;-86
2024/01/28 07:52:41;;;;;;;15.25;5.90;;;;;;;;;;4959635;28;20019;-86
2024/01/28 07:55:06;;;;;;;18.83;6.37;;;;;;;;;;4964874;28;20027;-89
2024/01/28 07:57:31;;;;;;;14.93;6.13;;;;;;;;;;4973330;28;20398;-84
2024/01/28 07:59:57;;;;;;;13.17;5.87;;;;;;;;;;4972286;28;20054;-85
2024/01/28 08:02:22;;;;;;;15.25;6.60;;;;;;;;;;4970045;28;20074;-84
2024/01/28 08:04:47;;;;;;;14.60;6.03;;;;;;;;;;4962674;28;20057;-85
2024/01/28 08:07:12;;;;;;;15.53;5.97;;;;;;;;;;4971527;28;20418;-84
2024/01/28 08:09:38;;;;;;;16.70;6.47;;;;;;;;;;4971564;28;20043;-84
2024/01/28 08:12:03;;;;;;;16.77;6.73;;;;;;;;;;4970790;28;20049;-84
2024/01/28 08:14:28;;;;;;;16.42;6.45;;;;;;;;;;4971357;28;20025;-84
2024/01/28 08:16:54;;;;;;;19.53;6.60;;;;;;;;;;4971008;28;20041;-85
2024/01/28 08:19:19;;;;;;;23.57;7.00;;;;;;;;;;4973119;28;20073;-83
2024/01/28 08:21:46;;;;;;;24.30;8.30;;;;;;;;;;4970792;28;20113;-84
2024/01/28 08:24:11;;;;;;;16.75;7.47;;;;;;;;;;4971420;28;20022;-84
2024/01/28 08:26:37;;;;;;;15.37;7.37;;;;;;;;;;4953611;28;20030;-85
2024/01/28 08:29:02;;;;;;;13.73;6.87;;;;;;;;;;4969841;28;20402;-85
2024/01/28 08:31:27;;;;;;;20.10;7.20;;;;;;;;;;4971180;28;20285;-84
2024/01/28 08:33:54;;;;;;;20.97;7.00;;;;;;;;;;4971773;28;20018;-85
2024/01/28 08:36:19;;;;;;;15.68;7.10;;;;;;;;;;4973301;28;20690;-86
2024/01/28 08:38:44;;;;;;;11.63;6.20;;;;;;;;;;4970196;28;20027;-83
2024/01/28 08:41:10;;;;;;;17.90;6.57;;;;;;;;;;4971480;28;20035;-84
2024/01/28 08:43:35;;;;;;;19.87;7.37;;;;;;;;;;4972231;28;20014;-83
2024/01/28 08:46:01;;;;;;;16.93;6.13;;;;;;;;;;4969622;28;20041;-83
2024/01/28 08:48:26;;;;;;;16.65;6.97;;;;;;;;;;4972617;28;20026;-84
2024/01/28 08:50:53;;;;;;;18.83;6.85;;;;;;;;;;4962812;28;20047;-85
2024/01/28 08:53:18;;;;;;;15.27;7.33;;;;;;;;;;4971920;28;20065;-84
2024/01/28 08:55:43;;;;;;;26.40;7.67;;;;;;;;;;4971244;28;20026;-84
2024/01/28 08:58:09;;;;;;;16.90;6.80;;;;;;;;;;4954184;28;20042;-85
2024/01/28 09:00:34;;;;;;;16.03;6.27;;;;;;;;;;4970206;28;20114;-85
2024/01/28 09:02:59;;;;;;;17.93;6.77;;;;;;;;;;4968346;28;20475;-83
2024/01/28 09:05:24;;;;;;;17.67;7.27;;;;;;;;;;4967096;28;20030;-84
2024/01/28 09:07:51;;;;;;;14.40;6.87;;;;;;;;;;4969881;28;20023;-85
2024/01/28 09:10:18;;;;;;;11.45;6.13;;;;;;;;;;4970535;28;20019;-85
2024/01/28 09:12:43;;;;;;;18.10;7.25;;;;;;;;;;4969573;28;20080;-85
2024/01/28 09:15:09;;;;;;;10.93;6.47;;;;;;;;;;4969404;28;20018;-84
2024/01/28 09:17:34;;;;;;;18.17;7.10;;;;;;;;;;4971070;28;20034;-84
2024/01/28 09:19:59;;;;;;;17.10;6.90;;;;;;;;;;4967241;28;20124;-86
2024/01/28 09:22:24;;;;;;;25.97;7.37;;;;;;;;;;4967951;28;20027;-84
2024/01/28 09:24:49;;;;;;;18.83;7.70;;;;;;;;;;4961770;28;20554;-84
2024/01/28 09:27:15;;;;;;;13.27;7.27;;;;;;;;;;4970782;28;20033;-84
2024/01/28 09:29:40;;;;;;;20.03;6.80;;;;;;;;;;4969655;28;20587;-84
2024/01/28 09:32:05;;;;;;;21.80;6.77;;;;;;;;;;4975666;28;20534;-83
2024/01/28 09:34:30;;;;;;;15.30;6.20;;;;;;;;;;4970736;28;20522;-84
2024/01/28 09:36:56;;;;;;;9.73;4.53;;;;;;;;;;4969527;28;20023;-83
2024/01/28 09:39:21;;;;;;;14.13;4.87;;;;;;;;;;4970008;28;20353;-84
2024/01/28 09:41:46;;;;;;;12.97;5.47;;;;;;;;;;4952993;28;20501;-83
2024/01/28 09:44:11;;;;;;;10.87;4.80;;;;;;;;;;4968818;28;20078;-84
2024/01/28 09:46:37;;;;;;;16.90;5.30;;;;;;;;;;4966771;28;20081;-84
2024/01/28 09:49:03;;;;;;;13.97;5.63;;;;;;;;;;4961660;28;20027;-85
2024/01/28 09:51:28;;;;;;;11.77;4.78;;;;;;;;;;4938904;29;20034;-86
2024/01/28 09:53:53;;;;;;;16.00;5.60;;;;;;;;;;4961360;28;20019;-87
2024/01/28 09:56:18;;;;;;;10.80;5.17;;;;;;;;;;4969632;28;20113;-85
2024/01/28 09:58:43;;;;;;;14.53;5.40;;;;;;;;;;4966227;28;20041;-86
2024/01/28 10:01:13;;;;;;;7.57;5.13;;;;;;;;;;4972274;28;20113;-86
2024/01/28 10:03:39;;;;;;;17.38;5.47;;;;;;;;;;4974124;28;20030;-85
2024/01/28 10:06:05;;;;;;;14.03;5.07;;;;;;;;;;4981541;28;20031;-87
2024/01/28 10:08:30;;;;;;;10.38;4.72;;;;;;;;;;4967804;28;20102;-87
2024/01/28 10:10:55;;;;;;;13.00;4.93;;;;;;;;;;4954205;28;20383;-85
2024/01/28 10:13:21;;;;;;;12.53;4.30;;;;;;;;;;4975947;28;20660;-85
2024/01/28 10:15:59;;;;;;;11.40;4.53;;;;;;;;;;4956902;28;20395;-86
2024/01/28 10:18:24;;;;;;;10.60;4.47;;;;;;;;;;4971174;28;20324;-83
2024/01/28 10:20:50;;;;;;;12.48;4.13;;;;;;;;;;4954533;28;20031;-84
2024/01/28 10:23:16;;;;;;;8.80;4.47;;;;;;;;;;4968054;28;20106;-82
2024/01/28 10:25:42;;;;;;;7.40;3.53;;;;;;;;;;4972281;28;20475;-84
2024/01/28 10:28:08;;;;;;;8.30;4.00;;;;;;;;;;4964446;28;20102;-86
2024/01/28 10:30:33;;;;;;;8.95;3.70;;;;;;;;;;4968032;28;20438;-86
2024/01/28 10:32:58;;;;;;;9.07;3.63;;;;;;;;;;4973541;28;20029;-89
2024/01/28 10:35:25;;;;;;;11.83;3.83;;;;;;;;;;4973561;28;20035;-89
2024/01/28 10:37:53;;;;;;;8.95;3.30;;;;;;;;;;4972854;28;20085;-88
2024/01/28 10:40:19;;;;;;;12.85;3.42;;;;;;;;;;4971044;28;20061;-88
2024/01/28 10:42:47;;;;;;;6.50;3.23;;;;;;;;;;4968122;28;20027;-91
2024/01/28 10:45:17;;;;;;;11.48;4.07;;;;;;;;;;4957179;29;20019;-91
2024/01/28 10:47:48;;;;;;;5.63;3.67;;;;;;;;;;4978308;28;20058;-91
2024/01/28 10:50:14;;;;;;;9.20;3.58;;;;;;;;;;4967990;28;20027;-93
2024/01/28 10:52:39;;;;;;;8.77;4.47;;;;;;;;;;4965656;28;20026;-86
2024/01/28 10:55:05;;;;;;;11.40;3.72;;;;;;;;;;4940184;29;20027;-93
2024/01/28 10:57:32;;;;;;;9.13;3.67;;;;;;;;;;4972782;28;20034;-90
2024/01/28 10:59:59;;;;;;;10.63;3.92;;;;;;;;;;4984074;28;20031;-96
2024/01/28 11:02:24;;;;;;;15.23;4.32;;;;;;;;;;4975524;28;20027;-93
2024/01/28 11:04:50;;;;;;;8.50;4.20;;;;;;;;;;4971306;28;20080;-96
2024/01/28 11:07:16;;;;;;;13.15;4.20;;;;;;;;;;4972933;28;20081;-84
2024/01/28 11:09:41;;;;;;;9.10;3.80;;;;;;;;;;4973531;28;20442;-92
2024/01/28 11:12:15;;;;;;;5.47;4.00;;;;;;;;;;4969537;28;20258;-94
2024/01/28 11:14:40;;;;;;;11.65;4.45;;;;;;;;;;4977754;28;20328;-91
2024/01/28 11:17:12;;;;;;;8.70;4.03;;;;;;;;;;4977923;28;20039;-93
2024/01/28 11:19:37;;;;;;;8.47;4.10;;;;;;;;;;4966355;28;20282;-93
2024/01/28 11:22:12;;;;;;;11.07;4.70;;;;;;;;;;4976936;28;20038;-94
2024/01/28 11:25:02;;;;;;;10.38;4.45;;;;;;;;;;4988418;28;20011;-94
2024/01/28 11:27:43;;;;;;;6.85;3.92;;;;;;;;;;5003305;23;20057;-93
2024/01/28 11:33:06;;;;;;;13.82;4.47;;;;;;;;;;5124745;22;20062;-93
2024/01/28 11:35:32;;;;;;;10.47;3.90;;;;;;;;;;4985911;28;20018;-93
2024/01/28 11:37:59;;;;;;;8.23;3.80;;;;;;;;;;4995027;28;20088;-94
2024/01/28 11:40:30;;;;;;;10.02;3.70;;;;;;;;;;4998110;28;20097;-93
2024/01/28 11:42:55;;;;;;;7.72;3.60;;;;;;;;;;4998272;28;20084;-92
2024/01/28 11:45:21;;;;;;;8.43;3.53;;;;;;;;;;5018164;28;20040;-94
2024/01/28 11:47:46;;;;;;;6.80;3.47;;;;;;;;;;5009019;23;20532;-92
2024/01/28 11:50:31;;;;;;;7.80;3.47;;;;;;;;;;4983883;28;20022;-93
2024/01/28 11:53:24;;;;;;;7.28;3.38;;;;;;;;;;4997711;28;20022;-94
2024/01/28 11:55:50;;;;;;;7.90;3.22;;;;;;;;;;4977868;28;20046;-94
2024/01/28 11:58:18;;;;;;;6.47;3.42;;;;;;;;;;4963103;28;20033;-96
2024/01/28 12:00:43;;;;;;;7.80;2.83;;;;;;;;;;4976505;23;20053;-96
2024/01/28 12:03:30;;;;;;;6.45;3.25;;;;;;;;;;4972980;28;20498;-92
2024/01/28 12:06:10;;;;;;;7.27;2.80;;;;;;;;;;4991165;28;20046;-94
2024/01/28 12:08:39;;;;;;;11.10;3.05;;;;;;;;;;4981643;28;20098;-91
2024/01/28 12:11:06;;;;;;;6.68;2.75;;;;;;;;;;4979537;28;20030;-93
2024/01/28 12:13:31;;;;;;;5.82;3.00;;;;;;;;;;4995381;28;20018;-93
2024/01/28 12:16:08;;;;;;;8.30;2.93;;;;;;;;;;4997086;28;20038;-94
2024/01/28 12:18:40;;;;;;;8.13;2.60;;;;;;;;;;4971521;28;20152;-92
2024/01/28 12:21:24;;;;;;;5.60;2.60;;;;;;;;;;4985050;28;20042;-92
2024/01/28 12:24:12;;;;;;;4.03;2.38;;;;;;;;;;4997598;28;20033;-94
2024/01/28 12:26:45;;;;;;;7.30;2.67;;;;;;;;;;5000361;28;20045;-94
2024/01/28 12:29:10;;;;;;;5.93;2.90;;;;;;;;;;4989252;28;20023;-91
2024/01/28 12:31:35;;;;;;;5.77;2.80;;;;;;;;;;5002939;28;20296;-92
2024/01/28 12:34:01;;;;;;;5.17;2.83;;;;;;;;;;4996035;28;20038;-92
2024/01/28 12:36:26;;;;;;;7.50;3.10;;;;;;;;;;4980689;28;20022;-90
2024/01/28 12:38:52;;;;;;;7.37;3.30;;;;;;;;;;5005984;28;20044;-92
2024/01/28 12:41:18;;;;;;;7.93;2.83;;;;;;;;;;4975691;28;20088;-90
2024/01/28 12:43:47;;;;;;;8.30;2.92;;;;;;;;;;4996142;28;20018;-90
2024/01/28 12:46:12;;;;;;;6.63;2.78;;;;;;;;;;4999976;28;20025;-92
2024/01/28 12:48:37;;;;;;;7.70;2.53;;;;;;;;;;4997606;28;20026;-91
2024/01/28 12:51:03;;;;;;;6.33;2.33;;;;;;;;;;4999661;28;20029;-91
2024/01/28 12:53:28;;;;;;;5.00;2.47;;;;;;;;;;4997902;28;20022;-93
2024/01/28 12:55:53;;;;;;;7.37;2.13;;;;;;;;;;4997162;28;20025;-92
2024/01/28 12:58:18;;;;;;;6.23;2.30;;;;;;;;;;5008573;28;20082;-91
2024/01/28 13:00:44;;;;;;;5.73;2.40;;;;;;;;;;5007216;28;20823;-92
2024/01/28 13:03:09;;;;;;;5.30;2.10;;;;;;;;;;5005811;28;20019;-93
2024/01/28 13:05:34;;;;;;;4.87;2.37;;;;;;;;;;4997164;28;20034;-92
2024/01/28 13:08:00;;;;;;;6.40;2.77;;;;;;;;;;4994283;28;20390;-92
2024/01/28 13:10:25;;;;;;;4.37;2.20;;;;;;;;;;4998707;28;20023;-92
2024/01/28 13:12:56;;;;;;;5.50;2.20;;;;;;;;;;4996349;28;20018;-93
2024/01/28 13:15:21;;;;;;;6.05;2.25;;;;;;;;;;4995911;28;20033;-92
2024/01/28 13:17:47;;;;;;;5.90;2.40;;;;;;;;;;4995008;28;20015;-90
2024/01/28 13:20:19;;;;;;;6.60;2.40;;;;;;;;;;4993061;28;20094;-92
2024/01/28 13:22:45;;;;;;;5.82;2.38;;;;;;;;;;4977897;28;20037;-92
2024/01/28 13:25:13;;;;;;;6.47;2.72;;;;;;;;;;4993609;28;20025;-94
2024/01/28 13:27:39;;;;;;;7.65;2.33;;;;;;;;;;4979115;28;20133;-94
2024/01/28 13:30:05;;;;;;;6.70;2.55;;;;;;;;;;5016146;28;20022;-93
2024/01/28 13:32:33;;;;;;;4.73;2.27;;;;;;;;;;5093174;23;20138;-92
2024/01/28 13:35:00;;;;;;;6.55;2.50;;;;;;;;;;4972885;28;20251;-93
2024/01/28 13:37:25;;;;;;;5.28;2.70;;;;;;;;;;4960394;28;20117;-92
2024/01/28 13:39:51;;;;;;;5.00;2.47;;;;;;;;;;4976020;28;20471;-93
2024/01/28 13:42:16;;;;;;;6.75;2.90;;;;;;;;;;4977792;28;20018;-93
2024/01/28 13:44:42;;;;;;;3.90;2.17;;;;;;;;;;4978316;28;20418;-93
2024/01/28 13:47:07;;;;;;;4.80;2.60;;;;;;;;;;4996855;28;20429;-94
2024/01/28 13:49:33;;;;;;;5.30;2.50;;;;;;;;;;4961532;28;20189;-95
2024/01/28 13:51:58;;;;;;;5.53;2.72;;;;;;;;;;4982760;28;20033;-94
2024/01/28 13:54:23;;;;;;;5.07;2.50;;;;;;;;;;4964299;28;20030;-94
2024/01/28 13:56:48;;;;;;;6.43;2.47;;;;;;;;;;4961936;28;20020;-94
2024/01/28 13:59:15;;;;;;;5.07;2.30;;;;;;;;;;4945792;28;20035;-95
2024/01/28 14:01:40;;;;;;;7.57;2.42;;;;;;;;;;4976823;28;20041;-93
2024/01/28 14:04:05;;;;;;;7.77;2.40;;;;;;;;;;4979916;28;20102;-95
2024/01/28 14:06:48;;;;;;;7.53;2.53;;;;;;;;;;4985910;28;20023;-93
2024/01/28 14:09:16;;;;;;;5.72;2.55;;;;;;;;;;4967038;29;20114;-93
2024/01/28 14:11:41;;;;;;;4.20;2.38;;;;;;;;;;4976867;28;20009;-93
2024/01/28 14:14:06;;;;;;;6.47;2.40;;;;;;;;;;5001495;28;20035;-93
2024/01/28 14:16:32;;;;;;;6.73;2.50;;;;;;;;;;4990393;28;20034;-93
2024/01/28 14:18:57;;;;;;;5.43;2.70;;;;;;;;;;5009243;28;20338;-93
2024/01/28 14:21:28;;;;;;;5.03;2.03;;;;;;;;;;4973764;28;20038;-94
2024/01/28 14:23:56;;;;;;;5.07;2.50;;;;;;;;;;4971143;28;20030;-93
2024/01/28 14:26:25;;;;;;;10.52;3.38;;;;;;;;;;4966851;28;20103;-94
2024/01/28 14:28:56;;;;;;;5.63;2.80;;;;;;;;;;4984338;28;20023;-94
2024/01/28 14:31:28;;;;;;;8.70;3.50;;;;;;;;;;4964100;28;20948;-93
2024/01/28 14:34:23;;;;;;;9.98;3.00;;;;;;;;;;4977618;28;20057;-94
2024/01/28 14:37:01;;;;;;;7.65;2.90;;;;;;;;;;4983215;28;20021;-92
2024/01/28 14:39:30;;;;;;;9.32;3.83;;;;;;;;;;4994924;28;20026;-92
2024/01/28 14:42:07;;;;;;;7.00;3.42;;;;;;;;;;4969758;28;20038;-90
2024/01/28 14:44:32;;;;;;;9.07;4.40;;;;;;;;;;4973691;28;20030;-91
2024/01/28 14:46:57;;;;;;;8.45;3.47;;;;;;;;;;4984139;28;20109;-91
2024/01/28 14:49:23;;;;;;;6.40;3.27;;;;;;;;;;4976689;28;20503;-91
2024/01/28 14:51:49;;;;;;;6.90;2.90;;;;;;;;;;4965820;28;20015;-88
2024/01/28 14:54:17;;;;;;;7.22;3.13;;;;;;;;;;4972639;28;20026;-92
2024/01/28 14:56:44;;;;;;;6.60;2.67;;;;;;;;;;4977167;28;20155;-90
2024/01/28 14:59:09;;;;;;;5.88;2.60;;;;;;;;;;4961971;28;20019;-90
2024/01/28 15:01:34;;;;;;;7.50;3.13;;;;;;;;;;4986763;28;20102;-91
2024/01/28 15:04:00;;;;;;;5.03;2.93;;;;;;;;;;4976454;28;20019;-92
2024/01/28 15:06:25;;;;;;;12.00;4.60;;;;;;;;;;4974900;28;20435;-90
2024/01/28 15:08:50;;;;;;;13.10;5.07;;;;;;;;;;4980507;28;20021;-88
2024/01/28 15:11:15;;;;;;;9.20;4.90;;;;;;;;;;4989963;28;20034;-90
2024/01/28 15:13:42;;;;;;;6.77;4.47;;;;;;;;;;4978767;28;20022;-90
2024/01/28 15:16:08;;;;;;;5.95;3.63;;;;;;;;;;4970392;28;20024;-91
2024/01/28 15:18:33;;;;;;;10.57;4.20;;;;;;;;;;4975492;28;20219;-90
2024/01/28 15:21:00;;;;;;;8.60;5.00;;;;;;;;;;4989776;28;20039;-90
2024/01/28 15:23:26;;;;;;;6.45;3.83;;;;;;;;;;4973559;28;20486;-89
2024/01/28 15:25:51;;;;;;;7.40;4.30;;;;;;;;;;4971057;28;20023;-90
2024/01/28 15:28:16;;;;;;;13.43;4.30;;;;;;;;;;4968230;28;20110;-90
2024/01/28 15:30:41;;;;;;;6.37;3.83;;;;;;;;;;4970275;28;20271;-90
2024/01/28 15:35:38;;;;;;;11.07;4.00;;;;;;;;;;5104459;23;20046;-90
2024/01/28 15:38:05;;;;;;;7.93;3.50;;;;;;;;;;4977798;28;20349;-89
2024/01/28 15:40:30;;;;;;;9.30;3.90;;;;;;;;;;4973666;28;20033;-92
2024/01/28 15:42:55;;;;;;;6.73;3.40;;;;;;;;;;4973259;28;20026;-89
2024/01/28 15:45:21;;;;;;;8.87;4.10;;;;;;;;;;4996744;28;20018;-94
2024/01/28 15:47:47;;;;;;;11.00;4.13;;;;;;;;;;4979206;28;20031;-93
2024/01/28 15:50:12;;;;;;;9.55;4.70;;;;;;;;;;4977291;28;20033;-92
2024/01/28 15:52:37;;;;;;;10.70;5.57;;;;;;;;;;4992303;28;20018;-91
2024/01/28 15:55:03;;;;;;;9.93;4.90;;;;;;;;;;4985663;28;20018;-88
2024/01/28 15:57:35;;;;;;;10.43;5.00;;;;;;;;;;4982310;28;20090;-91
2024/01/28 16:00:33;;;;;;;10.15;4.38;;;;;;;;;;4980279;28;20033;-90
2024/01/28 16:03:29;;;;;;;7.68;4.63;;;;;;;;;;4978495;28;20039;-92
2024/01/28 16:06:05;;;;;;;10.23;4.40;;;;;;;;;;4968867;28;20039;-92
2024/01/28 16:08:33;;;;;;;9.17;4.20;;;;;;;;;;4981588;28;20294;-89
2024/01/28 16:10:58;;;;;;;15.50;4.40;;;;;;;;;;4980392;28;20041;-90
2024/01/28 16:13:27;;;;;;;11.33;4.50;;;;;;;;;;4977671;28;20026;-91
2024/01/28 16:15:52;;;;;;;8.55;4.53;;;;;;;;;;4962798;28;20039;-92
2024/01/28 16:18:17;;;;;;;12.70;4.77;;;;;;;;;;4982326;28;20028;-92
2024/01/28 16:20:43;;;;;;;10.30;5.00;;;;;;;;;;4979524;28;20029;-92
2024/01/28 16:23:14;;;;;;;14.02;5.57;;;;;;;;;;4978285;28;20035;-90
2024/01/28 16:29:04;;;;;;;11.70;5.37;;;;;;;;;;4969690;29;20438;-92
2024/01/28 16:31:29;;;;;;;11.37;5.57;;;;;;;;;;4984995;28;20365;-95
2024/01/28 16:34:07;;;;;;;11.38;5.13;;;;;;;;;;4977471;28;20034;-94
2024/01/28 16:36:55;;;;;;;11.30;5.85;;;;;;;;;;4985871;22;20693;-95
2024/01/28 16:39:20;;;;;;;15.63;6.00;;;;;;;;;;4975664;28;20046;-94
2024/01/28 16:41:47;;;;;;;10.00;5.53;;;;;;;;;;4974219;28;20304;-94
2024/01/28 16:44:13;;;;;;;18.83;8.75;;;;;;;;;;4973237;28;20475;-95
2024/01/28 16:46:40;;;;;;;27.53;14.17;;;;;;;;;;4975695;28;20080;-93
2024/01/28 16:49:05;;;;;;;25.02;13.43;;;;;;;;;;4974382;28;20038;-92
2024/01/28 16:51:30;;;;;;;18.87;9.50;;;;;;;;;;4990885;28;20027;-96
2024/01/28 16:53:55;;;;;;;19.37;10.27;;;;;;;;;;4976467;28;20033;-91
2024/01/28 16:56:21;;;;;;;21.50;11.23;;;;;;;;;;4980293;28;20015;-93
2024/01/28 17:01:21;;;;;;;20.48;10.00;;;;;;;;;;4990879;22;20121;-95
2024/01/28 17:03:46;;;;;;;20.60;8.10;;;;;;;;;;4972329;28;20016;-93
2024/01/28 17:06:12;;;;;;;19.83;8.85;;;;;;;;;;4977368;28;20015;-92
2024/01/28 17:08:37;;;;;;;11.40;5.13;;;;;;;;;;4978410;28;20149;-92
2024/01/28 17:11:04;;;;;;;11.10;5.93;;;;;;;;;;4974892;28;20033;-94
2024/01/28 17:13:33;;;;;;;7.93;5.33;;;;;;;;;;4974944;28;20282;-94
2024/01/28 17:15:58;;;;;;;13.02;5.53;;;;;;;;;;4978312;28;20195;-95
2024/01/28 17:18:26;;;;;;;15.10;6.27;;;;;;;;;;4981588;28;20014;-95
2024/01/28 17:20:53;;;;;;;15.32;8.05;;;;;;;;;;4981059;28;20083;-95
2024/01/28 17:23:19;;;;;;;20.85;9.77;;;;;;;;;;4993220;28;20549;-95
2024/01/28 17:25:44;;;;;;;19.57;9.20;;;;;;;;;;5187340;23;20046;-94
2024/01/28 17:28:10;;;;;;;17.37;8.53;;;;;;;;;;5023105;28;20018;-92
2024/01/28 17:30:35;;;;;;;19.38;8.10;;;;;;;;;;5008637;28;20034;-92
2024/01/28 17:33:01;;;;;;;19.60;8.70;;;;;;;;;;5012553;28;20169;-92
2024/01/28 17:35:26;;;;;;;14.57;7.77;;;;;;;;;;5015065;28;20014;-93
2024/01/28 17:37:51;;;;;;;14.63;6.93;;;;;;;;;;5011370;28;20030;-91
2024/01/28 17:40:17;;;;;;;16.60;6.73;;;;;;;;;;5010158;28;20037;-90
2024/01/28 17:42:42;;;;;;;13.87;7.03;;;;;;;;;;5015755;28;20041;-93
2024/01/28 17:45:07;;;;;;;11.07;6.45;;;;;;;;;;5013174;28;20021;-93
2024/01/28 17:47:33;;;;;;;10.20;5.87;;;;;;;;;;5008287;28;20030;-95
2024/01/28 17:49:58;;;;;;;13.00;5.77;;;;;;;;;;5005583;28;20056;-92
2024/01/28 17:52:24;;;;;;;12.63;6.53;;;;;;;;;;5003883;28;20030;-94
2024/01/28 17:54:49;;;;;;;12.48;6.32;;;;;;;;;;5007008;28;20018;-94
2024/01/28 17:57:15;;;;;;;11.17;6.07;;;;;;;;;;5003142;28;20182;-94
2024/01/28 17:59:40;;;;;;;13.27;6.40;;;;;;;;;;4997125;28;20153;-92